createdAt,value
2022-11-28T00:17:38.324Z,7.82
2022-11-28T00:37:38.275Z,7.46
2022-11-28T00:57:38.258Z,7.32
2022-11-28T01:17:38.223Z,7.25
2022-11-28T01:37:38.212Z,7.33
2022-11-28T01:57:38.179Z,7.24
2022-11-28T02:17:38.135Z,7.14
2022-11-28T02:37:38.111Z,7.15
2022-11-28T03:17:38.053Z,7.25
2022-11-28T03:37:38.033Z,7.18
2022-11-28T03:57:37.976Z,7.15
2022-11-28T04:17:37.946Z,7.02
2022-11-28T04:37:37.912Z,6.83
2022-11-28T04:57:37.884Z,6.82
2022-11-28T05:17:42.100Z,6.79
2022-11-28T05:37:37.828Z,6.67
2022-11-28T05:57:37.781Z,6.81
2022-11-28T06:17:37.749Z,7.01
2022-11-28T06:37:37.721Z,7.03
2022-11-28T06:57:37.682Z,6.83
2022-11-28T07:17:37.658Z,6.68
2022-11-28T07:37:37.628Z,7.12
2022-11-28T07:57:37.606Z,7.42
2022-11-28T08:37:37.542Z,7.76
2022-11-28T08:57:37.498Z,7.92
2022-11-28T09:17:37.475Z,7.88
2022-11-28T09:37:37.444Z,7.93
2022-11-28T09:57:37.410Z,8.03
2022-11-28T10:17:37.370Z,8.1
2022-11-28T10:37:37.333Z,8.1
2022-11-28T11:17:37.268Z,8.29
2022-11-28T11:37:37.233Z,8.49
2022-11-28T11:57:37.252Z,8.38
2022-11-28T12:17:48.178Z,8.1
2022-11-28T12:37:55.078Z,7.94
2022-11-28T12:57:37.104Z,7.83
2022-11-28T13:17:37.110Z,7.78
2022-11-28T13:57:37.015Z,7.86
2022-11-28T14:17:37.004Z,7.77
2022-11-28T14:37:36.952Z,7.74
2022-11-28T14:57:36.915Z,7.71
2022-11-28T15:17:36.874Z,7.69
2022-11-28T15:37:36.895Z,7.64
2022-11-28T15:57:36.806Z,7.62
2022-11-28T16:17:36.776Z,7.62
2022-11-28T16:37:36.744Z,7.6
2022-11-28T16:57:36.722Z,7.57
2022-11-28T17:17:36.692Z,7.62
2022-11-28T17:37:36.656Z,7.69
2022-11-28T17:57:36.617Z,7.71
2022-11-28T18:17:36.582Z,7.75
2022-11-28T18:37:36.564Z,7.8
2022-11-28T18:57:36.521Z,7.84
2022-11-28T19:17:36.487Z,7.89
2022-11-28T19:37:36.454Z,7.94
2022-11-28T19:57:36.432Z,7.95
2022-11-28T20:37:36.359Z,8.03
2022-11-28T20:57:36.329Z,8.08
2022-11-28T21:37:36.261Z,8.1
2022-11-28T21:57:36.249Z,8.1
2022-11-28T22:37:36.220Z,8.18
2022-11-28T22:57:36.131Z,8.13
2022-11-28T23:17:36.106Z,8.11
2022-11-28T23:37:36.067Z,8.11
2022-11-28T23:57:36.055Z,8.1
